Time;durP1;ratioP1;P1;durP2;ratioP2;P2;SDS_P1;SDS_P2;PMS_P1;PMS_P2;Temp;Humidity;BMP_temperature;BMP_pressure;BME280_temperature;BME280_humidity;BME280_pressure;Samples;Min_cycle;Max_cycle;Signal;HPM_P1;HPM_P2
2021/09/24 00:03:14;;;;;;;;;;;16.60;99.90;;;;;;8415588;28;19927;-73
2021/09/24 00:07:16;;;;;;;;;;;16.60;99.90;;;;;;8415305;28;19928;-73
2021/09/24 00:11:18;;;;;;;;;;;16.60;99.90;;;;;;8418850;28;19932;-73
2021/09/24 00:15:19;;;;;;;;;;;16.60;99.90;;;;;;8417057;28;19923;-73
2021/09/24 00:19:21;;;;;;;;;;;16.50;99.90;;;;;;8414634;28;20875;-73
2021/09/24 00:23:23;;;;;;;;;;;16.50;99.90;;;;;;8416826;28;19921;-73
2021/09/24 00:27:24;;;;;;;;;;;16.50;99.90;;;;;;8417488;28;20349;-73
2021/09/24 00:31:26;;;;;;;;;;;16.40;99.90;;;;;;8420904;28;19920;-73
2021/09/24 00:35:28;;;;;;;;;;;16.40;99.90;;;;;;8411096;28;19920;-73
2021/09/24 00:39:30;;;;;;;;;;;16.30;99.90;;;;;;8419902;28;19950;-73
2021/09/24 00:43:32;;;;;;;;;;;16.20;99.90;;;;;;8410523;28;20260;-73
2021/09/24 00:47:34;;;;;;;;;;;16.10;99.90;;;;;;8393329;28;19928;-73
2021/09/24 00:51:36;;;;;;;;;;;16.00;99.90;;;;;;8417421;28;19921;-73
2021/09/24 00:55:38;;;;;;;;;;;16.00;99.90;;;;;;8415168;28;20337;-73
2021/09/24 00:59:40;;;;;;;;;;;16.00;99.90;;;;;;8414407;28;19920;-73
2021/09/24 01:03:41;;;;;;;;;;;15.90;99.90;;;;;;8409219;28;19923;-73
2021/09/24 01:07:44;;;;;;;;;;;15.90;99.90;;;;;;8416358;28;20390;-73
2021/09/24 01:11:46;;;;;;;;;;;16.00;99.90;;;;;;8418277;28;19920;-73
2021/09/24 01:15:47;;;;;;;;;;;16.10;99.90;;;;;;8411825;28;19990;-73
2021/09/24 01:19:49;;;;;;;;;;;16.10;99.90;;;;;;8412177;28;20800;-73
2021/09/24 01:23:51;;;;;;;;;;;16.10;99.90;;;;;;8413822;28;19928;-73
2021/09/24 01:27:53;;;;;;;;;;;16.20;99.90;;;;;;8420687;28;19923;-73
2021/09/24 01:31:56;;;;;;;;;;;16.20;99.90;;;;;;8418988;28;19929;-73
2021/09/24 01:35:58;;;;;;;;;;;16.20;99.90;;;;;;8413367;28;19920;-73
2021/09/24 01:40:00;;;;;;;;;;;16.20;99.90;;;;;;8409760;28;19920;-73
2021/09/24 01:44:02;;;;;;;;;;;16.20;99.90;;;;;;8417309;28;19943;-73
2021/09/24 01:48:04;;;;;;;;;;;16.10;99.90;;;;;;8404815;28;19920;-73
2021/09/24 01:52:06;;;;;;;;;;;16.10;99.90;;;;;;8412093;28;19924;-73
2021/09/24 01:56:07;;;;;;;;;;;16.00;99.90;;;;;;8418247;28;19973;-73
2021/09/24 02:00:10;;;;;;;;;;;16.00;99.90;;;;;;8410292;28;19931;-73
2021/09/24 02:04:12;;;;;;;;;;;16.10;99.90;;;;;;8402704;28;19924;-72
2021/09/24 02:08:14;;;;;;;;;;;16.10;99.90;;;;;;8416807;28;19945;-71
2021/09/24 02:12:15;;;;;;;;;;;16.10;99.90;;;;;;8415349;28;19950;-71
2021/09/24 02:16:17;;;;;;;;;;;16.10;99.90;;;;;;8419873;28;19920;-71
2021/09/24 02:20:19;;;;;;;;;;;16.10;99.90;;;;;;8416656;28;19962;-71
2021/09/24 02:24:20;;;;;;;;;;;16.10;99.90;;;;;;8415857;28;20393;-71
2021/09/24 02:28:22;;;;;;;;;;;16.10;99.90;;;;;;8426800;28;19983;-71
2021/09/24 02:32:24;;;;;;;;;;;16.20;99.90;;;;;;8422770;28;19920;-71
2021/09/24 02:36:25;;;;;;;;;;;16.20;99.90;;;;;;8427533;28;19929;-71
2021/09/24 02:40:27;;;;;;;;;;;16.20;99.90;;;;;;8419976;28;19920;-71
2021/09/24 02:44:29;;;;;;;;;;;16.20;99.90;;;;;;8431629;28;20379;-72
2021/09/24 02:48:31;;;;;;;;;;;16.20;99.90;;;;;;8405032;28;20375;-73
2021/09/24 02:52:33;;;;;;;;;;;16.30;99.90;;;;;;8422192;28;19927;-73
2021/09/24 02:56:34;;;;;;;;;;;16.30;99.90;;;;;;8423122;28;19928;-73
2021/09/24 03:00:36;;;;;;;;;;;16.30;99.90;;;;;;8425356;28;20356;-73
2021/09/24 03:04:38;;;;;;;;;;;16.30;99.90;;;;;;8429651;28;19920;-72
2021/09/24 03:08:39;;;;;;;;;;;16.30;99.90;;;;;;8413324;28;19928;-73
2021/09/24 03:12:41;;;;;;;;;;;16.30;99.90;;;;;;8423743;28;19954;-73
2021/09/24 03:16:43;;;;;;;;;;;16.20;99.90;;;;;;8414806;28;19924;-73
2021/09/24 03:20:45;;;;;;;;;;;16.20;99.90;;;;;;8402705;28;19975;-72
2021/09/24 03:24:46;;;;;;;;;;;16.10;99.90;;;;;;8418956;28;19974;-73
2021/09/24 03:28:48;;;;;;;;;;;16.10;99.90;;;;;;8420213;28;19939;-73
2021/09/24 03:32:50;;;;;;;;;;;16.00;99.90;;;;;;8406038;28;19965;-73
2021/09/24 03:36:51;;;;;;;;;;;16.00;99.90;;;;;;8418742;28;19973;-73
2021/09/24 03:40:53;;;;;;;;;;;15.90;99.90;;;;;;8420822;28;19927;-73
2021/09/24 03:44:55;;;;;;;;;;;15.90;99.90;;;;;;8421724;28;19928;-72
2021/09/24 03:48:57;;;;;;;;;;;15.80;99.90;;;;;;8420678;28;19928;-73
2021/09/24 03:52:58;;;;;;;;;;;15.70;99.90;;;;;;8419611;28;19973;-73
2021/09/24 03:57:00;;;;;;;;;;;15.70;99.90;;;;;;8418347;28;19989;-72
2021/09/24 04:01:02;;;;;;;;;;;15.60;99.90;;;;;;8409228;28;19972;-73
2021/09/24 04:05:05;;;;;;;;;;;15.60;99.90;;;;;;8417323;28;19987;-73
2021/09/24 04:09:06;;;;;;;;;;;15.60;99.90;;;;;;8415791;28;19927;-73
2021/09/24 04:13:08;;;;;;;;;;;15.60;99.90;;;;;;8417228;28;19927;-73
2021/09/24 04:17:10;;;;;;;;;;;15.60;99.90;;;;;;8407858;28;19920;-73
2021/09/24 04:21:11;;;;;;;;;;;15.60;99.90;;;;;;8416312;28;19924;-73
2021/09/24 04:25:13;;;;;;;;;;;15.60;99.90;;;;;;8422225;28;19985;-73
2021/09/24 04:29:15;;;;;;;;;;;15.70;99.90;;;;;;8417168;28;19920;-73
2021/09/24 04:33:16;;;;;;;;;;;15.70;99.90;;;;;;8413912;28;19920;-73
2021/09/24 04:37:18;;;;;;;;;;;15.80;99.90;;;;;;8408746;28;19931;-74
2021/09/24 04:41:20;;;;;;;;;;;15.80;99.90;;;;;;8418871;28;20574;-73
2021/09/24 04:45:21;;;;;;;;;;;15.90;99.90;;;;;;8403099;28;20264;-73
2021/09/24 04:49:23;;;;;;;;;;;15.90;99.90;;;;;;8416587;28;19973;-73
2021/09/24 04:53:25;;;;;;;;;;;16.00;99.90;;;;;;8409605;28;20216;-73
2021/09/24 04:57:26;;;;;;;;;;;16.00;99.90;;;;;;8400612;28;20395;-73
2021/09/24 05:01:28;;;;;;;;;;;16.00;99.90;;;;;;8419389;28;20240;-73
2021/09/24 05:05:30;;;;;;;;;;;16.10;99.90;;;;;;8404447;28;19926;-73
2021/09/24 05:09:31;;;;;;;;;;;16.10;99.90;;;;;;8416051;28;20049;-73
2021/09/24 05:13:33;;;;;;;;;;;16.10;99.90;;;;;;8399018;28;19921;-73
2021/09/24 05:17:35;;;;;;;;;;;16.10;99.90;;;;;;8398216;28;19977;-74
2021/09/24 05:21:37;;;;;;;;;;;16.20;99.90;;;;;;8406316;28;19920;-73
2021/09/24 05:25:38;;;;;;;;;;;16.20;99.90;;;;;;8403436;28;20471;-73
2021/09/24 05:29:40;;;;;;;;;;;16.20;99.90;;;;;;8414299;28;20367;-73
2021/09/24 05:33:42;;;;;;;;;;;16.20;99.90;;;;;;8419225;28;19920;-73
2021/09/24 05:37:43;;;;;;;;;;;16.20;99.90;;;;;;8417238;28;19924;-73
2021/09/24 05:41:45;;;;;;;;;;;16.20;99.90;;;;;;8404845;28;19924;-73
2021/09/24 05:45:47;;;;;;;;;;;16.30;99.90;;;;;;8412519;28;20280;-73
2021/09/24 05:49:48;;;;;;;;;;;16.30;99.90;;;;;;8416344;28;19950;-73
2021/09/24 05:53:50;;;;;;;;;;;16.30;99.90;;;;;;8415485;28;19924;-73
2021/09/24 05:57:52;;;;;;;;;;;16.40;99.90;;;;;;8414504;28;20418;-73
2021/09/24 06:01:54;;;;;;;;;;;16.40;99.90;;;;;;8402776;28;19961;-72
2021/09/24 06:05:56;;;;;;;;;;;16.50;99.90;;;;;;8405067;28;20355;-73
2021/09/24 06:09:58;;;;;;;;;;;16.60;99.90;;;;;;8408904;28;19932;-74
2021/09/24 06:13:59;;;;;;;;;;;16.60;99.90;;;;;;8405759;28;19928;-73
2021/09/24 06:18:01;;;;;;;;;;;16.60;99.90;;;;;;8416207;28;20568;-73
2021/09/24 06:22:04;;;;;;;;;;;16.70;99.90;;;;;;8406944;28;19970;-73
2021/09/24 06:26:06;;;;;;;;;;;16.70;99.90;;;;;;8413956;28;20326;-73
2021/09/24 06:30:09;;;;;;;;;;;16.70;99.90;;;;;;8406213;28;19920;-73
2021/09/24 06:34:11;;;;;;;;;;;16.80;99.90;;;;;;8414312;28;19932;-73
2021/09/24 06:38:13;;;;;;;;;;;16.80;99.90;;;;;;8412043;28;20344;-74
2021/09/24 06:42:14;;;;;;;;;;;16.80;99.90;;;;;;8412805;28;19923;-74
2021/09/24 06:46:16;;;;;;;;;;;16.80;99.90;;;;;;8411248;28;19928;-75
2021/09/24 06:50:18;;;;;;;;;;;16.80;99.90;;;;;;8402168;28;20303;-73
2021/09/24 06:54:19;;;;;;;;;;;16.90;99.90;;;;;;8421665;28;19920;-73
2021/09/24 06:58:23;;;;;;;;;;;17.00;99.90;;;;;;8412105;28;20363;-73
2021/09/24 07:02:25;;;;;;;;;;;17.00;99.90;;;;;;8405993;28;19920;-73
2021/09/24 07:06:27;;;;;;;;;;;17.00;99.90;;;;;;8416172;28;19920;-73
2021/09/24 07:10:29;;;;;;;;;;;17.00;99.90;;;;;;8403353;28;19927;-73
2021/09/24 07:14:31;;;;;;;;;;;17.00;99.90;;;;;;8398892;28;19928;-74
2021/09/24 07:18:33;;;;;;;;;;;17.10;99.90;;;;;;8415422;28;20308;-74
2021/09/24 07:22:35;;;;;;;;;;;17.10;99.90;;;;;;8409427;28;20025;-74
2021/09/24 07:26:37;;;;;;;;;;;17.10;99.90;;;;;;8397927;28;20057;-73
2021/09/24 07:30:38;;;;;;;;;;;17.10;99.90;;;;;;8399728;28;19947;-73
2021/09/24 07:34:43;;;;;;;;;;;17.20;99.90;;;;;;8400158;28;19943;-73
2021/09/24 07:38:46;;;;;;;;;;;17.20;99.90;;;;;;8383396;28;19955;-73
2021/09/24 07:42:47;;;;;;;;;;;17.20;99.90;;;;;;8400111;28;19998;-73
2021/09/24 07:46:51;;;;;;;;;;;17.20;99.90;;;;;;8396843;28;19920;-73
2021/09/24 07:50:52;;;;;;;;;;;17.30;99.90;;;;;;8401227;28;19919;-73
2021/09/24 07:54:54;;;;;;;;;;;17.30;99.90;;;;;;8399699;28;19928;-73
2021/09/24 07:58:56;;;;;;;;;;;17.30;99.90;;;;;;8398660;28;20426;-73
2021/09/24 08:02:58;;;;;;;;;;;17.30;99.90;;;;;;8403102;28;19928;-73
2021/09/24 08:07:01;;;;;;;;;;;17.40;99.90;;;;;;8393579;28;20378;-73
2021/09/24 08:11:02;;;;;;;;;;;17.40;99.90;;;;;;8398043;28;20356;-73
2021/09/24 08:15:05;;;;;;;;;;;17.40;99.90;;;;;;8398705;28;19947;-73
2021/09/24 08:19:06;;;;;;;;;;;17.40;99.90;;;;;;8397960;28;20375;-73
2021/09/24 08:23:08;;;;;;;;;;;17.50;99.90;;;;;;8390433;28;19959;-74
2021/09/24 08:27:11;;;;;;;;;;;17.50;99.90;;;;;;8398442;28;19942;-74
2021/09/24 08:31:12;;;;;;;;;;;17.60;99.90;;;;;;8396131;28;19920;-73
2021/09/24 08:35:16;;;;;;;;;;;17.60;99.90;;;;;;8392994;28;19931;-73
2021/09/24 08:39:17;;;;;;;31.52;18.55;;;17.70;99.90;;;;;;8398697;28;19921;-73
2021/09/24 08:43:19;;;;;;;34.30;19.73;;;17.70;99.90;;;;;;8397364;28;20045;-74
2021/09/24 08:47:21;;;;;;;32.92;21.17;;;17.80;99.90;;;;;;8396776;28;20058;-74
2021/09/24 08:51:23;;;;;;;34.95;19.42;;;17.80;99.90;;;;;;8397786;28;20121;-73
2021/09/24 08:55:26;;;;;;;33.47;22.13;;;17.80;99.90;;;;;;8399311;28;20048;-73
2021/09/24 08:59:28;;;;;;;37.28;22.77;;;17.90;99.90;;;;;;8396065;28;20051;-72
2021/09/24 09:03:40;;;;;;;29.70;19.80;;;17.90;99.90;;;;;;8396414;28;20064;-74
2021/09/24 09:07:42;;;;;;;31.58;18.35;;;17.90;99.90;;;;;;8392140;28;20291;-74
2021/09/24 09:11:44;;;;;;;29.77;20.70;;;18.00;99.90;;;;;;8393951;28;20045;-73
2021/09/24 09:16:12;;;;;;;;;;;18.10;99.90;;;;;;8390818;28;20052;-74
2021/09/24 09:20:15;;;;;;;;;;;18.10;99.90;;;;;;8391710;28;20287;-73
2021/09/24 09:24:18;;;;;;;;;;;18.20;99.90;;;;;;8392626;28;19920;-73
2021/09/24 09:28:29;;;;;;;;;;;18.20;99.90;;;;;;8381395;28;20031;-73
2021/09/24 09:32:31;;;;;;;;;;;18.20;99.90;;;;;;8394141;28;19920;-72
2021/09/24 09:36:34;;;;;;;;;;;18.30;99.90;;;;;;8393372;28;20408;-73
2021/09/24 09:40:36;;;;;;;;;;;18.30;99.90;;;;;;8399273;28;19923;-73
2021/09/24 09:44:38;;;;;;;25.92;16.80;;;18.40;99.90;;;;;;8391044;28;20065;-73
2021/09/24 09:48:41;;;;;;;22.63;13.90;;;18.50;99.90;;;;;;8395103;28;20056;-73
2021/09/24 09:53:00;;;;;;;23.20;15.90;;;18.60;99.90;;;;;;8379162;28;20903;-75
2021/09/24 09:57:18;;;;;;;;;;;18.70;99.90;;;;;;8397822;28;19927;-73
2021/09/24 10:01:20;;;;;;;;;;;18.80;99.90;;;;;;8394811;28;19924;-73
2021/09/24 10:05:32;;;;;;;;;;;18.80;99.90;;;;;;8390777;28;20363;-73
2021/09/24 10:09:34;;;;;;;;;;;18.80;99.90;;;;;;8393146;28;19920;-73
2021/09/24 10:13:47;;;;;;;;;;;18.90;99.90;;;;;;8394939;28;19920;-73
2021/09/24 10:17:50;;;;;;;;;;;18.90;99.90;;;;;;8388840;28;19974;-73
2021/09/24 10:21:51;;;;;;;;;;;19.10;99.90;;;;;;8392807;28;19924;-72
2021/09/24 10:25:58;;;;;;;;;;;19.20;99.90;;;;;;8393075;28;19920;-72
2021/09/24 10:30:05;;;;;;;;;;;19.40;99.90;;;;;;8390757;28;19928;-72
2021/09/24 10:34:07;;;;;;;;;;;19.40;99.90;;;;;;8389710;28;20407;-73
2021/09/24 10:38:09;;;;;;;;;;;19.20;99.90;;;;;;8398713;28;19935;-72
2021/09/24 10:42:18;;;;;;;;;;;19.20;99.90;;;;;;8393851;28;20248;-72
2021/09/24 10:46:26;;;;;;;;;;;19.30;99.90;;;;;;8393340;28;19928;-73
2021/09/24 10:50:37;;;;;;;;;;;19.40;99.90;;;;;;8385706;28;19924;-73
2021/09/24 10:54:53;;;;;;;;;;;19.50;99.90;;;;;;8399801;28;19927;-73
2021/09/24 10:58:54;;;;;;;;;;;19.60;99.90;;;;;;8402557;28;19928;-73
2021/09/24 11:03:14;;;;;;;;;;;19.50;99.90;;;;;;8382248;28;20411;-73
2021/09/24 11:07:30;;;;;;;;;;;19.50;99.90;;;;;;8399765;28;19997;-73
2021/09/24 11:11:33;;;;;;;;;;;19.50;99.90;;;;;;8400058;28;19924;-73
2021/09/24 11:15:55;;;;;;;;;;;19.50;99.90;;;;;;8399902;28;20352;-73
2021/09/24 11:20:18;;;;;;;;;;;19.60;99.90;;;;;;8386415;28;19934;-73
2021/09/24 11:24:27;;;;;;;;;;;19.60;99.90;;;;;;8400123;28;19970;-73
2021/09/24 11:28:32;;;;;;;;;;;19.80;99.90;;;;;;8398735;28;19924;-73
2021/09/24 11:32:37;;;;;;;;;;;19.90;99.90;;;;;;8397820;28;19931;-73
2021/09/24 11:36:59;;;;;;;;;;;20.00;99.90;;;;;;8400665;28;19938;-73
2021/09/24 11:41:01;;;;;;;;;;;20.00;99.90;;;;;;8399780;28;19947;-73
2021/09/24 11:45:04;;;;;;;;;;;20.00;99.90;;;;;;8402284;28;19977;-73
2021/09/24 11:49:06;;;;;;;;;;;20.00;99.90;;;;;;8397651;28;20344;-72
2021/09/24 11:53:10;;;;;;;;;;;20.10;99.90;;;;;;8391159;28;19920;-73
2021/09/24 11:57:15;;;;;;;;;;;20.00;99.90;;;;;;8400604;28;19923;-73
2021/09/24 12:01:23;;;;;;;;;;;20.10;99.90;;;;;;8402358;28;19977;-73
2021/09/24 12:05:25;;;;;;;;;;;20.20;99.90;;;;;;8396213;28;20314;-73
2021/09/24 12:09:26;;;;;;;;;;;20.20;99.90;;;;;;8403227;28;19920;-73
2021/09/24 12:13:56;;;;;;;;;;;20.10;99.90;;;;;;8400155;28;19931;-73
2021/09/24 12:17:58;;;;;;;;;;;20.10;99.90;;;;;;8402842;28;19989;-73
2021/09/24 12:21:59;;;;;;;;;;;20.10;99.90;;;;;;8399547;28;19920;-74
2021/09/24 12:26:03;;;;;;;;;;;20.10;99.90;;;;;;8402617;28;24882;-73
2021/09/24 12:30:15;;;;;;;;;;;20.20;99.90;;;;;;8394562;28;19924;-72
2021/09/24 12:34:19;;;;;;;;;;;20.20;99.90;;;;;;8399133;28;19985;-73
2021/09/24 12:38:28;;;;;;;;;;;20.20;99.90;;;;;;8384285;28;19920;-73
2021/09/24 12:42:40;;;;;;;;;;;20.00;99.90;;;;;;8397592;28;19935;-74
2021/09/24 12:46:49;;;;;;;;;;;20.00;99.90;;;;;;8402048;28;20290;-73
2021/09/24 12:50:51;;;;;;;;;;;20.10;99.90;;;;;;8401460;28;20444;-73
2021/09/24 12:54:53;;;;;;;;;;;20.20;99.90;;;;;;8386521;28;19959;-73
2021/09/24 12:58:56;;;;;;;;;;;20.50;99.90;;;;;;8398822;28;19982;-73
2021/09/24 13:03:01;;;;;;;;;;;20.70;99.90;;;;;;8400552;28;19924;-73
2021/09/24 13:07:03;;;;;;;;;;;20.80;99.90;;;;;;8395501;28;19954;-72
2021/09/24 13:11:05;;;;;;;;;;;21.00;99.90;;;;;;8397223;28;19925;-71
2021/09/24 13:15:09;;;;;;;;;;;21.10;99.90;;;;;;8377130;28;19920;-70
2021/09/24 13:19:11;;;;;;;;;;;21.10;99.90;;;;;;8393727;28;19931;-71
2021/09/24 13:23:12;;;;;;;;;;;21.10;99.90;;;;;;8397099;28;19920;-73
2021/09/24 13:27:20;;;;;;;;;;;21.10;99.90;;;;;;8398598;28;19939;-73
2021/09/24 13:31:22;;;;;;;;;;;21.20;99.90;;;;;;8398059;28;19931;-73
2021/09/24 13:35:24;;;;;;;;;;;21.20;99.90;;;;;;8394311;28;19938;-73
2021/09/24 13:39:25;;;;;;;;;;;21.20;99.90;;;;;;8387239;28;19997;-73
2021/09/24 13:43:27;;;;;;;;;;;21.20;99.90;;;;;;8394029;28;20031;-74
2021/09/24 13:47:29;;;;;;;;;;;21.30;99.90;;;;;;8396403;28;19927;-72
2021/09/24 13:51:30;;;;;;;;;;;21.40;99.90;;;;;;8396838;28;19924;-73
2021/09/24 13:55:32;;;;;;;;;;;21.40;99.90;;;;;;8394184;28;19924;-73
2021/09/24 13:59:34;;;;;;;;;;;21.50;99.90;;;;;;8395772;28;19920;-73
2021/09/24 14:03:36;;;;;;;;;;;21.40;99.90;;;;;;8389572;28;21630;-73
2021/09/24 14:07:38;;;;;;;;;;;21.50;99.90;;;;;;8399638;28;19927;-74
2021/09/24 14:11:40;;;;;;;;;;;21.50;99.90;;;;;;8394826;28;19920;-74
2021/09/24 14:15:41;;;;;;;;;;;21.70;99.90;;;;;;8382354;28;19927;-73
2021/09/24 14:19:43;;;;;;;;;;;21.70;99.90;;;;;;8379321;28;20559;-73
2021/09/24 14:23:45;;;;;;;;;;;21.60;99.90;;;;;;8398859;28;20367;-73
2021/09/24 14:27:47;;;;;;;;;;;21.50;99.90;;;;;;8402399;28;19927;-74
2021/09/24 14:31:49;;;;;;;;;;;21.30;99.90;;;;;;8402675;28;19970;-74
2021/09/24 14:35:51;;;;;;;;;;;21.20;99.90;;;;;;8403324;28;20003;-74
2021/09/24 14:39:52;;;;;;;;;;;21.10;99.90;;;;;;8402168;28;19920;-73
2021/09/24 14:43:54;;;;;;;;;;;21.10;99.90;;;;;;8405229;28;19935;-74
2021/09/24 14:47:56;;;;;;;;;;;21.00;99.90;;;;;;8402767;28;19935;-74
2021/09/24 14:51:57;;;;;;;;;;;21.00;99.90;;;;;;8404402;28;19924;-73
2021/09/24 14:55:59;;;;;;;;;;;21.10;99.90;;;;;;8384132;28;19974;-73
2021/09/24 15:00:03;;;;;;;;;;;21.20;99.90;;;;;;8394711;28;19920;-74
2021/09/24 15:04:04;;;;;;;;;;;21.40;99.90;;;;;;8397206;28;19932;-73
2021/09/24 15:08:06;;;;;;;;;;;21.40;99.90;;;;;;8402472;28;20232;-74
2021/09/24 15:12:08;;;;;;;;;;;21.40;99.90;;;;;;8398340;28;19929;-73
2021/09/24 15:16:10;;;;;;;;;;;21.40;99.90;;;;;;8405095;28;19924;-73
2021/09/24 15:20:12;;;;;;;;;;;21.40;99.90;;;;;;8385013;28;20046;-73
2021/09/24 15:24:13;;;;;;;;;;;21.30;99.90;;;;;;8389853;28;19982;-74
2021/09/24 15:28:15;;;;;;;;;;;21.30;99.90;;;;;;8387055;28;19931;-74
2021/09/24 15:32:17;;;;;;;;;;;21.30;99.90;;;;;;8392980;28;19990;-74
2021/09/24 15:36:19;;;;;;;;;;;21.30;99.90;;;;;;8388508;28;19974;-73
2021/09/24 15:40:20;;;;;;;;;;;21.30;99.90;;;;;;8399445;28;19924;-73
2021/09/24 15:44:22;;;;;;;;;;;21.30;99.90;;;;;;8395616;28;19927;-73
2021/09/24 15:48:24;;;;;;;;;;;21.20;99.90;;;;;;8400387;28;19920;-73
2021/09/24 15:52:26;;;;;;;;;;;21.20;99.90;;;;;;8391675;28;19928;-73
2021/09/24 15:56:27;;;;;;;;;;;21.20;99.90;;;;;;8389275;28;19920;-74
2021/09/24 16:00:29;;;;;;;;;;;21.20;99.90;;;;;;8389824;28;19973;-74
2021/09/24 16:04:31;;;;;;;;;;;21.10;99.90;;;;;;8392445;28;19920;-73
2021/09/24 16:08:33;;;;;;;7.70;4.23;;;21.10;99.90;;;;;;8379399;28;20403;-73
2021/09/24 16:12:35;;;;;;;;;;;21.10;99.90;;;;;;8378491;28;19924;-74
2021/09/24 16:16:37;;;;;;;;;;;21.00;99.90;;;;;;8394060;28;19932;-74
2021/09/24 16:20:39;;;;;;;;;;;21.00;99.90;;;;;;8398547;28;20348;-73
2021/09/24 16:24:40;;;;;;;;;;;20.90;99.90;;;;;;8384208;28;20387;-73
2021/09/24 16:28:42;;;;;;;5.78;3.03;;;20.80;99.90;;;;;;8391792;28;19927;-74
2021/09/24 16:32:44;;;;;;;9.25;3.00;;;20.80;99.90;;;;;;8389223;28;20085;-74
2021/09/24 16:36:46;;;;;;;6.70;2.70;;;20.70;99.90;;;;;;8390269;28;20076;-73
2021/09/24 16:40:49;;;;;;;8.75;3.10;;;20.70;99.90;;;;;;8368764;28;20488;-74
2021/09/24 16:44:51;;;;;;;5.75;2.95;;;20.60;99.90;;;;;;8389387;28;20502;-74
2021/09/24 16:48:52;;;;;;;7.40;2.58;;;20.50;99.90;;;;;;8390866;28;20375;-73
2021/09/24 16:52:54;;;;;;;6.00;2.40;;;20.40;99.90;;;;;;8388538;28;20471;-74
2021/09/24 16:56:56;;;;;;;7.30;2.78;;;20.40;99.90;;;;;;8387901;28;20055;-74
2021/09/24 17:00:58;;;;;;;8.02;2.53;;;20.30;99.90;;;;;;8387381;28;20064;-73
2021/09/24 17:05:00;;;;;;;7.35;2.47;;;20.20;99.90;;;;;;8370295;28;20056;-73
2021/09/24 17:09:02;;;;;;;5.03;2.20;;;20.20;99.90;;;;;;8391159;28;20049;-74
2021/09/24 17:13:04;;;;;;;9.45;2.90;;;20.10;99.90;;;;;;8388559;28;20045;-73
2021/09/24 17:17:06;;;;;;;8.35;2.75;;;20.00;99.90;;;;;;8386728;28;20048;-73
2021/09/24 17:21:09;;;;;;;5.75;2.10;;;19.90;99.90;;;;;;8386649;28;20539;-73
2021/09/24 17:25:11;;;;;;;7.10;2.70;;;19.90;99.90;;;;;;8391474;28;20048;-73
2021/09/24 17:29:13;;;;;;;10.15;2.55;;;19.80;99.90;;;;;;8389317;28;20117;-74
2021/09/24 17:33:15;;;;;;;9.00;2.97;;;19.80;99.90;;;;;;8388007;28;20048;-73
2021/09/24 17:37:16;;;;;;;8.02;2.88;;;19.70;99.90;;;;;;8389585;28;20098;-73
2021/09/24 17:41:18;;;;;;;7.55;2.75;;;19.60;99.90;;;;;;8390510;28;20506;-73
2021/09/24 17:45:22;;;;;;;11.43;2.80;;;19.50;99.90;;;;;;8384630;28;20051;-74
2021/09/24 17:49:24;;;;;;;8.50;3.08;;;19.50;99.90;;;;;;8391290;28;20032;-73
2021/09/24 17:53:26;;;;;;;9.00;2.88;;;19.40;99.90;;;;;;8371072;28;20044;-74
2021/09/24 17:57:28;;;;;;;7.18;2.90;;;19.40;99.90;;;;;;8368160;28;20526;-74
2021/09/24 18:01:29;;;;;;;8.75;3.10;;;19.30;99.90;;;;;;8366237;28;20059;-73
2021/09/24 18:05:32;;;;;;;7.95;2.58;;;19.30;99.90;;;;;;8387552;28;20432;-73
2021/09/24 18:09:35;;;;;;;6.68;2.38;;;19.30;99.90;;;;;;8355020;28;21303;-74
2021/09/24 18:13:37;;;;;;;11.27;2.72;;;19.30;99.90;;;;;;8354668;28;20060;-74
2021/09/24 18:17:39;;;;;;;7.50;2.70;;;19.30;99.90;;;;;;8353772;28;20041;-74
2021/09/24 18:21:41;;;;;;;8.13;2.72;;;19.40;99.90;;;;;;8343406;28;20400;-74
2021/09/24 18:25:43;;;;;;;7.90;2.40;;;19.40;99.90;;;;;;8357670;28;20532;-74
2021/09/24 18:29:45;;;;;;;;;;;19.40;99.90;;;;;;8357300;28;20331;-73
2021/09/24 18:33:47;;;;;;;7.60;2.20;;;19.40;99.90;;;;;;8353478;28;19977;-73
2021/09/24 18:37:51;;;;;;;6.22;2.33;;;19.40;99.90;;;;;;8355548;28;20053;-74
2021/09/24 18:41:53;;;;;;;4.70;2.10;;;19.40;99.90;;;;;;8350516;28;20052;-73
2021/09/24 18:45:55;;;;;;;7.15;2.17;;;19.30;99.90;;;;;;8351949;28;20146;-73
2021/09/24 18:49:57;;;;;;;10.07;2.65;;;19.30;99.90;;;;;;8340484;28;20045;-74
2021/09/24 18:53:59;;;;;;;6.75;2.08;;;19.30;99.90;;;;;;8338563;28;20495;-74
2021/09/24 18:58:02;;;;;;;8.82;2.53;;;19.30;99.90;;;;;;8353674;28;20405;-73
2021/09/24 19:02:03;;;;;;;4.80;2.10;;;19.30;99.90;;;;;;8353033;28;20052;-73
2021/09/24 19:06:05;;;;;;;8.73;2.42;;;19.20;99.90;;;;;;8350272;28;20060;-74
2021/09/24 19:10:08;;;;;;;7.47;2.63;;;19.10;99.90;;;;;;8340245;28;20044;-73
2021/09/24 19:14:10;;;;;;;6.00;2.22;;;19.00;99.90;;;;;;8345921;28;20052;-73
2021/09/24 19:18:12;;;;;;;8.63;2.58;;;19.00;99.90;;;;;;8362390;28;20041;-73
2021/09/24 19:22:14;;;;;;;9.50;2.60;;;18.90;99.90;;;;;;8364131;28;20763;-73
2021/09/24 19:26:18;;;;;;;6.75;2.13;;;18.90;99.90;;;;;;8341723;28;20045;-73
2021/09/24 19:30:20;;;;;;;10.25;2.83;;;18.90;99.90;;;;;;8359832;28;20099;-73
2021/09/24 19:34:22;;;;;;;6.18;2.60;;;18.80;99.90;;;;;;8355784;28;20045;-73
2021/09/24 19:38:24;;;;;;;9.88;2.70;;;18.80;99.90;;;;;;8345555;28;20052;-73
2021/09/24 19:42:25;;;;;;;6.22;2.50;;;18.80;99.90;;;;;;8362786;28;20097;-74
2021/09/24 19:46:27;;;;;;;8.35;2.40;;;18.80;99.90;;;;;;8360996;28;20044;-73
2021/09/24 19:50:29;;;;;;;10.18;2.85;;;18.70;99.90;;;;;;8340833;28;20048;-73
2021/09/24 19:54:31;;;;;;;7.75;2.50;;;18.70;99.90;;;;;;8356234;28;20059;-74
2021/09/24 19:58:32;;;;;;;8.98;2.70;;;18.70;99.90;;;;;;8343465;28;20045;-74
2021/09/24 20:02:34;;;;;;;7.70;2.70;;;18.70;99.90;;;;;;8357107;28;20835;-73
2021/09/24 20:06:36;;;;;;;5.90;2.13;;;18.70;99.90;;;;;;8358115;28;20065;-74
2021/09/24 20:10:38;;;;;;;7.30;2.50;;;18.70;99.90;;;;;;8339801;28;20045;-74
2021/09/24 20:14:40;;;;;;;6.40;2.35;;;18.70;99.90;;;;;;8354834;28;20056;-73
2021/09/24 20:18:42;;;;;;;6.95;2.30;;;18.70;99.90;;;;;;8339644;28;20044;-74
2021/09/24 20:22:44;;;;;;;9.18;2.72;;;18.70;99.90;;;;;;8356499;28;20075;-73
2021/09/24 20:26:47;;;;;;;8.48;2.42;;;18.70;99.90;;;;;;8340349;28;20488;-73
2021/09/24 20:30:49;;;;;;;14.65;3.10;;;18.70;99.90;;;;;;8338144;28;20468;-73
2021/09/24 20:34:51;;;;;;;9.95;2.72;;;18.70;99.90;;;;;;8355097;28;20048;-73
2021/09/24 20:38:52;;;;;;;8.43;2.88;;;18.60;99.90;;;;;;8339178;28;20408;-73
2021/09/24 20:42:55;;;;;;;6.88;2.67;;;18.50;99.90;;;;;;8358334;28;20051;-73
2021/09/24 20:46:57;;;;;;;8.23;2.92;;;18.60;99.90;;;;;;8358321;28;20059;-74
2021/09/24 20:50:58;;;;;;;;;;;18.50;99.90;;;;;;8355949;28;20546;-73
2021/09/24 20:55:00;;;;;;;13.10;2.85;;;18.40;99.90;;;;;;8357635;28;19975;-73
2021/09/24 20:59:02;;;;;;;8.13;2.88;;;18.40;99.90;;;;;;8357049;28;20056;-73
2021/09/24 21:03:04;;;;;;;9.57;2.72;;;18.40;99.90;;;;;;8376353;28;20049;-73
2021/09/24 21:07:06;;;;;;;9.02;2.40;;;18.40;99.90;;;;;;8382839;28;20526;-73
2021/09/24 21:11:08;;;;;;;11.48;2.78;;;18.30;99.90;;;;;;8372319;28;20049;-73
2021/09/24 21:15:11;;;;;;;7.53;2.40;;;18.30;99.90;;;;;;8388120;28;20557;-74
2021/09/24 21:19:13;;;;;;;8.35;2.60;;;18.40;99.90;;;;;;8386836;28;20044;-74
2021/09/24 21:23:15;;;;;;;8.55;2.30;;;18.40;99.90;;;;;;8383624;28;20081;-73
2021/09/24 21:27:16;;;;;;;;;;;18.40;99.90;;;;;;8373403;28;20360;-74
2021/09/24 21:31:18;;;;;;;;;;;18.40;99.90;;;;;;8390342;28;19936;-74
2021/09/24 21:35:25;;;;;;;;;;;18.40;99.90;;;;;;8390216;28;19925;-74
2021/09/24 21:39:27;;;;;;;;;;;18.30;99.90;;;;;;8386031;28;20380;-73
2021/09/24 21:43:29;;;;;;;;;;;18.30;99.90;;;;;;8386460;28;19936;-74
2021/09/24 21:47:30;;;;;;;;;;;18.20;99.90;;;;;;8388148;28;19925;-73
2021/09/24 21:51:32;;;;;;;;;;;18.20;99.90;;;;;;8387157;28;19978;-74
2021/09/24 21:55:34;;;;;;;;;;;18.20;99.90;;;;;;8388353;28;19924;-74
2021/09/24 21:59:35;;;;;;;;;;;18.20;99.90;;;;;;8371863;28;20277;-73
2021/09/24 22:03:38;;;;;;;;;;;18.20;99.90;;;;;;8386132;28;19931;-73
2021/09/24 22:07:40;;;;;;;;;;;18.10;99.90;;;;;;8367110;28;19924;-74
2021/09/24 22:11:43;;;;;;;;;;;18.10;99.90;;;;;;8382621;28;20002;-74
2021/09/24 22:15:44;;;;;;;;;;;18.10;99.90;;;;;;8384873;28;19925;-74
2021/09/24 22:19:46;;;;;;;;;;;18.20;99.90;;;;;;8376510;28;20901;-73
2021/09/24 22:23:48;;;;;;;;;;;18.20;99.90;;;;;;8380418;28;19925;-73
2021/09/24 22:27:50;;;;;;;;;;;18.20;99.90;;;;;;8390694;28;19932;-73
2021/09/24 22:31:51;;;;;;;;;;;18.20;99.90;;;;;;8386872;28;19932;-73
2021/09/24 22:35:53;;;;;;;;;;;18.20;99.90;;;;;;8385377;28;19970;-73
2021/09/24 22:39:55;;;;;;;;;;;18.10;99.90;;;;;;8388008;28;19925;-73
2021/09/24 22:43:56;;;;;;;;;;;18.10;99.90;;;;;;8391854;28;19933;-73
2021/09/24 22:47:58;;;;;;;;;;;18.00;99.90;;;;;;8374645;28;19932;-73
2021/09/24 22:52:00;;;;;;;;;;;18.00;99.90;;;;;;8370680;28;19924;-73